Observations for SOUTHEND-ON-SEA, United Kingdom (EGMC)

EGMC 241520Z 09015KT 060V120 CAVOK 04/M04 Q1022 
EGMC 241450Z 09014G26KT CAVOK 05/M04 Q1022  
EGMC 241420Z 09016KT CAVOK 05/M04 Q1022 
EGMC 241350Z 09014KT CAVOK 05/M05 Q1022 
EGMC 241320Z 09018KT CAVOK 05/M05 Q1022 
EGMC 241250Z 09014KT CAVOK 04/M05 Q1022 
EGMC 241220Z 09014KT CAVOK 04/M04 Q1022 
EGMC 241150Z 08018KT CAVOK 04/M04 Q1022 
EGMC 241120Z 08014KT CAVOK 03/M04 Q1022 
EGMC 241050Z 08012KT CAVOK 03/M03 Q1022 
EGMC 241020Z 08014KT 9999 FEW022 02/M03 Q1022   
EGMC 240950Z 09012KT 9999 FEW022 02/M03 Q1022   
EGMC 240920Z 09012KT 9999 FEW022 03/M03 Q1022   
EGMC 240850Z 08009KT 9999 FEW022 02/M03 Q1022   
EGMC 240820Z 08009KT 9999 FEW022 00/M03 Q1021   
EGMC 240750Z 08011KT 9999 FEW023 00/M03 Q1021   
EGMC 240720Z 08008KT 9999 FEW024 M01/M04 Q1021  
EGMC 240650Z 08009KT 9999 FEW025 M01/M05 Q1021  
EGMC 240620Z 08007KT 9999 FEW025 M01/M04 Q1020  
EGMC 240550Z 07007KT 9999 FEW026 M01/M04 Q1020  
EGMC 240520Z 08008KT CAVOK M01/M04 Q1020
EGMC 240450Z 07008KT CAVOK M01/M04 Q1020
EGMC 240350Z 07007KT CAVOK M00/M04 Q1020
EGMC 240250Z 06006KT CAVOK M00/M04 Q1020
EGMC 240150Z 08007KT CAVOK M00/M04 Q1020
EGMC 240050Z 08007KT 9999 FEW031 00/M04 Q1020   
EGMC 232350Z 09008KT 9999 FEW031 01/M03 Q1020   
EGMC 232320Z 09010KT 9999 FEW031 01/M03 Q1020   
EGMC 232250Z 09011KT 9999 FEW032 02/M04 Q1020   
EGMC 232220Z 09011KT 9999 FEW032 02/M03 Q1019   
EGMC 232150Z 10013KT 9999 BKN032 02/M04 Q1019   
EGMC 232120Z 08012KT 9999 BKN032 01/M04 Q1020   
EGMC 232050Z 08012KT 9999 SCT029 02/M04 Q1019   
EGMC 232020Z 08011KT 9999 BKN029 01/M05 Q1019   
EGMC 231950Z 07013KT 9999 BKN029 02/M03 Q1019   
EGMC 231920Z 07013KT 9999 BKN028 03/M02 Q1019   
EGMC 231850Z 07013KT 9999 BKN027 02/M03 Q1019   
EGMC 231820Z 07011KT 9999 SCT027 02/M03 Q1020   
EGMC 231750Z 08011KT 9999 SCT026 02/M02 Q1020   
EGMC 231720Z 08012KT 9999 SCT026 02/M03 Q1020   
EGMC 231650Z 07013KT 9999 SCT027 02/M03 Q1020   
EGMC 231620Z 07013KT 9999 SCT027 03/M03 Q1020   
EGMC 231550Z 08014KT 9999 SCT029 03/M03 Q1020   
EGMC 231520Z 08013KT 9999 BKN028 03/M03 Q1020   
EGMC 231450Z 08012KT 9999 SCT027 BKN031 03/M02 Q1020